Time;durP1;ratioP1;P1;durP2;ratioP2;P2;SDS_P1;SDS_P2;PMS_P1;PMS_P2;Temp;Humidity;BMP_temperature;BMP_pressure;BME280_temperature;BME280_humidity;BME280_pressure;Samples;Min_cycle;Max_cycle;Signal;HPM_P1;HPM_P2
2023/08/24 00:00:54;;;;;;;30.23;16.30;;;;;;;;;;4928990;29;20047;-80
2023/08/24 00:03:24;;;;;;;32.00;16.90;;;;;;;;;;4932787;29;20051;-81
2023/08/24 00:05:55;;;;;;;31.38;17.27;;;;;;;;;;4935957;29;20062;-80
2023/08/24 00:08:25;;;;;;;31.52;16.20;;;;;;;;;;4918697;29;20059;-82
2023/08/24 00:11:00;;;;;;;30.15;16.77;;;;;;;;;;4936169;29;20056;-80
2023/08/24 00:13:57;;;;;;;31.20;16.13;;;;;;;;;;4935843;29;20055;-80
2023/08/24 00:16:27;;;;;;;33.58;16.90;;;;;;;;;;4935642;29;20058;-80
2023/08/24 00:18:57;;;;;;;29.23;17.13;;;;;;;;;;4919527;29;20055;-79
2023/08/24 00:21:31;;;;;;;32.22;17.45;;;;;;;;;;4945671;29;20046;-80
2023/08/24 00:24:03;;;;;;;40.30;17.40;;;;;;;;;;4935981;29;20048;-80
2023/08/24 00:26:34;;;;;;;35.38;17.38;;;;;;;;;;4918533;29;20062;-79
2023/08/24 00:29:07;;;;;;;32.35;16.98;;;;;;;;;;4918323;29;20070;-79
2023/08/24 00:31:39;;;;;;;29.50;16.60;;;;;;;;;;4936184;29;20395;-79
2023/08/24 00:34:11;;;;;;;33.33;17.35;;;;;;;;;;4935721;29;20051;-81
2023/08/24 00:36:42;;;;;;;30.48;18.33;;;;;;;;;;4918097;29;20060;-80
2023/08/24 00:39:12;;;;;;;32.80;17.30;;;;;;;;;;4917592;29;20059;-80
2023/08/24 00:41:43;;;;;;;34.15;17.50;;;;;;;;;;4918848;29;20052;-80
2023/08/24 00:44:16;;;;;;;35.22;19.23;;;;;;;;;;4917449;29;20066;-80
2023/08/24 00:46:47;;;;;;;35.83;18.63;;;;;;;;;;4935640;29;20054;-80
2023/08/24 00:49:17;;;;;;;34.10;17.25;;;;;;;;;;4918011;29;20145;-78
2023/08/24 00:51:49;;;;;;;33.20;17.85;;;;;;;;;;4935190;29;20048;-80
2023/08/24 00:54:21;;;;;;;33.53;17.95;;;;;;;;;;4935351;29;20395;-81
2023/08/24 00:56:55;;;;;;;30.75;17.55;;;;;;;;;;4917479;29;20060;-79
2023/08/24 00:59:26;;;;;;;34.65;18.05;;;;;;;;;;4918616;29;20055;-81
2023/08/24 01:01:57;;;;;;;31.25;17.00;;;;;;;;;;4934896;29;20495;-79
2023/08/24 01:04:29;;;;;;;33.15;17.35;;;;;;;;;;4918084;29;20043;-80
2023/08/24 01:07:00;;;;;;;35.50;17.95;;;;;;;;;;4917400;29;20058;-79
2023/08/24 01:09:31;;;;;;;35.85;17.38;;;;;;;;;;4917537;29;20067;-79
2023/08/24 01:12:20;;;;;;;32.65;17.17;;;;;;;;;;4934331;29;20044;-80
2023/08/24 01:15:12;;;;;;;31.42;17.27;;;;;;;;;;4935550;29;20047;-79
2023/08/24 01:17:44;;;;;;;35.25;18.02;;;;;;;;;;4917476;29;20529;-78
2023/08/24 01:20:18;;;;;;;37.40;18.48;;;;;;;;;;4917347;29;20125;-80
2023/08/24 01:23:06;;;;;;;32.55;17.35;;;;;;;;;;4934480;29;20047;-80
2023/08/24 01:25:53;;;;;;;33.42;17.73;;;;;;;;;;4917230;29;20054;-79
2023/08/24 01:28:25;;;;;;;33.17;18.33;;;;;;;;;;4934761;29;20051;-79
2023/08/24 01:30:56;;;;;;;36.22;17.58;;;;;;;;;;4916895;29;20058;-80
2023/08/24 01:33:33;;;;;;;31.67;17.85;;;;;;;;;;4939735;29;20047;-79
2023/08/24 01:36:11;;;;;;;37.45;17.35;;;;;;;;;;4927846;29;20133;-81
2023/08/24 01:38:42;;;;;;;31.65;17.65;;;;;;;;;;4945657;29;20043;-79
2023/08/24 01:41:21;;;;;;;31.80;17.48;;;;;;;;;;4953857;29;20127;-81
2023/08/24 01:43:58;;;;;;;35.58;18.88;;;;;;;;;;4936204;29;20054;-80
2023/08/24 01:46:33;;;;;;;34.53;17.65;;;;;;;;;;4936170;29;20419;-81
2023/08/24 01:49:08;;;;;;;39.03;18.27;;;;;;;;;;4935405;29;20055;-80
2023/08/24 01:51:41;;;;;;;37.95;17.90;;;;;;;;;;4928659;29;20039;-80
2023/08/24 01:57:11;;;;;;;40.20;18.75;;;;;;;;;;4916934;29;20074;-80
2023/08/24 01:59:42;;;;;;;39.00;17.90;;;;;;;;;;4917015;29;20051;-79
2023/08/24 02:02:12;;;;;;;37.97;19.15;;;;;;;;;;4917294;29;20055;-80
2023/08/24 02:04:44;;;;;;;37.53;18.27;;;;;;;;;;4934764;29;20071;-81
2023/08/24 02:07:17;;;;;;;35.53;17.98;;;;;;;;;;4934726;29;20479;-80
2023/08/24 02:09:47;;;;;;;33.65;16.90;;;;;;;;;;4917192;29;20522;-78
2023/08/24 02:12:20;;;;;;;32.80;17.67;;;;;;;;;;4935158;29;20048;-79
2023/08/24 02:14:51;;;;;;;34.58;17.73;;;;;;;;;;4935641;29;20082;-79
2023/08/24 02:17:22;;;;;;;31.92;18.55;;;;;;;;;;4952504;28;20052;-80
2023/08/24 02:19:52;;;;;;;33.80;18.77;;;;;;;;;;4952459;29;20044;-79
2023/08/24 02:22:22;;;;;;;31.58;17.75;;;;;;;;;;4952230;28;20047;-80
2023/08/24 02:24:53;;;;;;;30.90;17.45;;;;;;;;;;4938514;29;20058;-80
2023/08/24 02:27:25;;;;;;;37.33;18.85;;;;;;;;;;4923380;29;20716;-80
2023/08/24 02:29:55;;;;;;;35.70;18.17;;;;;;;;;;4937918;29;20051;-79
2023/08/24 02:32:27;;;;;;;40.60;19.55;;;;;;;;;;4957124;29;20478;-81
2023/08/24 02:34:59;;;;;;;33.25;18.15;;;;;;;;;;4958114;29;20051;-79
2023/08/24 02:37:32;;;;;;;36.70;18.50;;;;;;;;;;4940441;29;20051;-80
2023/08/24 02:40:05;;;;;;;35.95;18.30;;;;;;;;;;4924951;29;20058;-80
2023/08/24 02:42:37;;;;;;;31.30;17.08;;;;;;;;;;4958178;29;20058;-80
2023/08/24 02:45:12;;;;;;;35.78;17.52;;;;;;;;;;4956384;29;20058;-80
2023/08/24 02:47:47;;;;;;;34.63;17.60;;;;;;;;;;4939501;29;20074;-79
2023/08/24 02:50:21;;;;;;;34.67;17.90;;;;;;;;;;4940087;29;20047;-80
2023/08/24 02:53:28;;;;;;;38.00;18.40;;;;;;;;;;4941232;29;20047;-79
2023/08/24 02:56:01;;;;;;;34.08;17.67;;;;;;;;;;4940103;29;20054;-78
2023/08/24 02:58:35;;;;;;;32.78;16.98;;;;;;;;;;4957767;29;20043;-78
2023/08/24 03:01:10;;;;;;;35.10;17.73;;;;;;;;;;4924600;29;20062;-79
2023/08/24 03:03:40;;;;;;;34.63;18.00;;;;;;;;;;4957825;29;20051;-79
2023/08/24 03:06:11;;;;;;;34.83;18.42;;;;;;;;;;4939565;29;20418;-81
2023/08/24 03:08:45;;;;;;;;;;;;;;;;;;4957730;29;20367;-80
2023/08/24 03:11:16;;;;;;;35.67;17.88;;;;;;;;;;4957716;29;20292;-79
2023/08/24 03:13:46;;;;;;;37.88;18.85;;;;;;;;;;4938710;29;20410;-80
2023/08/24 03:16:18;;;;;;;31.70;17.48;;;;;;;;;;4939901;29;20051;-80
2023/08/24 03:18:52;;;;;;;33.83;18.75;;;;;;;;;;4939660;29;20047;-80
2023/08/24 03:21:25;;;;;;;33.03;17.17;;;;;;;;;;4957211;28;20406;-79
2023/08/24 03:23:58;;;;;;;37.10;18.30;;;;;;;;;;4957314;29;20046;-80
2023/08/24 03:26:29;;;;;;;34.83;17.77;;;;;;;;;;4957037;29;20339;-79
2023/08/24 03:28:59;;;;;;;32.83;19.25;;;;;;;;;;4956833;28;20043;-80
2023/08/24 03:31:31;;;;;;;34.85;19.20;;;;;;;;;;4939398;29;20059;-80
2023/08/24 03:34:05;;;;;;;31.73;17.73;;;;;;;;;;4939266;28;20047;-80
2023/08/24 03:36:37;;;;;;;35.78;18.83;;;;;;;;;;4956535;29;20050;-80
2023/08/24 03:39:09;;;;;;;36.45;18.67;;;;;;;;;;4939537;29;20051;-80
2023/08/24 03:41:42;;;;;;;34.65;17.65;;;;;;;;;;4939127;29;20051;-78
2023/08/24 03:44:13;;;;;;;33.33;17.83;;;;;;;;;;4956814;29;20051;-79
2023/08/24 03:46:43;;;;;;;31.40;17.73;;;;;;;;;;4923567;29;20055;-80
2023/08/24 03:49:19;;;;;;;36.00;17.65;;;;;;;;;;4938467;29;20059;-80
2023/08/24 03:51:50;;;;;;;33.17;17.33;;;;;;;;;;4939450;29;20054;-79
2023/08/24 03:54:23;;;;;;;33.80;17.40;;;;;;;;;;4938339;29;20482;-80
2023/08/24 03:56:54;;;;;;;37.83;17.80;;;;;;;;;;4956384;29;20058;-77
2023/08/24 03:59:28;;;;;;;36.35;18.27;;;;;;;;;;4940329;29;20051;-80
2023/08/24 04:02:02;;;;;;;35.70;18.30;;;;;;;;;;4939482;29;20442;-79
2023/08/24 04:04:32;;;;;;;33.97;18.70;;;;;;;;;;4923009;29;20058;-80
2023/08/24 04:07:02;;;;;;;32.80;17.77;;;;;;;;;;4938651;29;20082;-80
2023/08/24 04:09:38;;;;;;;35.83;19.10;;;;;;;;;;4938294;29;20051;-80
2023/08/24 04:12:09;;;;;;;38.88;20.13;;;;;;;;;;4956777;29;20058;-79
2023/08/24 04:14:40;;;;;;;35.42;19.02;;;;;;;;;;4938865;29;20085;-80
2023/08/24 04:17:10;;;;;;;36.05;18.23;;;;;;;;;;4938020;29;20051;-79
2023/08/24 04:19:43;;;;;;;35.80;17.70;;;;;;;;;;4955978;29;20055;-78
2023/08/24 04:22:14;;;;;;;32.78;18.52;;;;;;;;;;4938642;29;20395;-81
2023/08/24 04:24:46;;;;;;;34.03;17.98;;;;;;;;;;4955781;29;20062;-79
2023/08/24 04:27:16;;;;;;;34.70;17.52;;;;;;;;;;4956113;28;20047;-79
2023/08/24 04:29:49;;;;;;;34.42;18.02;;;;;;;;;;4956388;29;20055;-78
2023/08/24 04:32:20;;;;;;;38.20;17.52;;;;;;;;;;4955936;29;20047;-80
2023/08/24 04:34:55;;;;;;;33.47;18.25;;;;;;;;;;4955648;29;20123;-79
2023/08/24 04:37:25;;;;;;;34.63;18.77;;;;;;;;;;4938853;29;20043;-79
2023/08/24 04:42:52;;;;;;;32.97;17.40;;;;;;;;;;4942348;29;20039;-79
2023/08/24 04:45:24;;;;;;;39.40;18.48;;;;;;;;;;4955446;29;20054;-80
2023/08/24 04:47:54;;;;;;;37.60;17.98;;;;;;;;;;4955347;28;20058;-80
2023/08/24 04:50:30;;;;;;;35.60;18.13;;;;;;;;;;4955649;29;20050;-80
2023/08/24 04:53:01;;;;;;;35.10;18.33;;;;;;;;;;4955122;29;20051;-79
2023/08/24 04:55:32;;;;;;;38.17;19.27;;;;;;;;;;4955487;29;20403;-80
2023/08/24 04:58:02;;;;;;;37.38;19.63;;;;;;;;;;4955707;29;20055;-80
2023/08/24 05:00:35;;;;;;;36.30;19.80;;;;;;;;;;4955343;29;20051;-80
2023/08/24 05:03:08;;;;;;;32.88;18.65;;;;;;;;;;4955368;29;20063;-79
2023/08/24 05:05:41;;;;;;;37.58;20.75;;;;;;;;;;4955184;29;20078;-79
2023/08/24 05:08:11;;;;;;;38.85;20.20;;;;;;;;;;4921357;29;20487;-76
2023/08/24 05:10:46;;;;;;;34.33;19.30;;;;;;;;;;4955086;29;20059;-80
2023/08/24 05:13:20;;;;;;;40.00;18.17;;;;;;;;;;4955046;29;20047;-79
2023/08/24 05:15:52;;;;;;;36.10;18.42;;;;;;;;;;4954918;29;20043;-79
2023/08/24 05:18:22;;;;;;;37.53;19.25;;;;;;;;;;4954912;29;20047;-79
2023/08/24 05:20:55;;;;;;;40.35;19.83;;;;;;;;;;4955323;29;20367;-80
2023/08/24 05:23:26;;;;;;;36.33;19.17;;;;;;;;;;4955765;29;20055;-79
2023/08/24 05:26:01;;;;;;;45.72;22.05;;;;;;;;;;4955846;29;20051;-79
2023/08/24 05:28:32;;;;;;;41.78;22.98;;;;;;;;;;4954838;29;20047;-79
2023/08/24 05:31:08;;;;;;;45.08;22.20;;;;;;;;;;4936547;29;20486;-79
2023/08/24 05:33:41;;;;;;;49.60;21.80;;;;;;;;;;4958377;29;20051;-79
2023/08/24 05:36:16;;;;;;;48.53;21.95;;;;;;;;;;4963220;29;20055;-78
2023/08/24 05:38:46;;;;;;;42.30;21.63;;;;;;;;;;4962265;29;20498;-79
2023/08/24 05:41:21;;;;;;;40.88;21.83;;;;;;;;;;4961084;29;20059;-76
2023/08/24 05:43:52;;;;;;;43.10;23.10;;;;;;;;;;4977235;29;20035;-76
2023/08/24 05:46:23;;;;;;;44.78;21.95;;;;;;;;;;4976989;29;20027;-76
2023/08/24 05:48:53;;;;;;;46.42;21.38;;;;;;;;;;4977419;29;20043;-77
2023/08/24 05:51:26;;;;;;;42.85;21.55;;;;;;;;;;4974836;29;20065;-80
2023/08/24 05:53:58;;;;;;;38.38;20.98;;;;;;;;;;4955022;29;20360;-80
2023/08/24 05:56:31;;;;;;;41.22;21.08;;;;;;;;;;4954973;29;20051;-79
2023/08/24 05:59:02;;;;;;;40.60;20.30;;;;;;;;;;4957497;28;20043;-79
2023/08/24 06:01:38;;;;;;;41.67;20.75;;;;;;;;;;4958525;29;20047;-79
2023/08/24 06:04:13;;;;;;;41.20;21.35;;;;;;;;;;4958158;29;20047;-80
2023/08/24 06:06:46;;;;;;;43.05;20.27;;;;;;;;;;4958769;29;20509;-79
2023/08/24 06:09:16;;;;;;;45.78;20.80;;;;;;;;;;4941390;29;20043;-79
2023/08/24 06:11:47;;;;;;;41.60;20.33;;;;;;;;;;4958398;29;20058;-78
2023/08/24 06:14:19;;;;;;;42.53;20.30;;;;;;;;;;4958104;29;20051;-78
2023/08/24 06:16:49;;;;;;;42.33;20.02;;;;;;;;;;4941262;29;20055;-78
2023/08/24 06:19:20;;;;;;;38.63;20.27;;;;;;;;;;4940365;29;20054;-80
2023/08/24 06:21:51;;;;;;;42.00;20.58;;;;;;;;;;4958063;29;20514;-79
2023/08/24 06:24:24;;;;;;;42.95;20.80;;;;;;;;;;4958114;29;20520;-76
2023/08/24 06:26:56;;;;;;;39.60;19.35;;;;;;;;;;4957760;29;20051;-79
2023/08/24 06:29:27;;;;;;;36.28;19.13;;;;;;;;;;4958040;29;20047;-79
2023/08/24 06:31:59;;;;;;;43.45;20.88;;;;;;;;;;4956747;29;20487;-79
2023/08/24 06:34:29;;;;;;;38.65;20.08;;;;;;;;;;4958164;29;20043;-79
2023/08/24 06:37:03;;;;;;;35.03;19.38;;;;;;;;;;4957545;29;20044;-79
2023/08/24 06:39:33;;;;;;;36.72;18.60;;;;;;;;;;4956514;29;20405;-78
2023/08/24 06:42:09;;;;;;;37.13;19.38;;;;;;;;;;4957954;29;20055;-78
2023/08/24 06:44:45;;;;;;;37.67;19.67;;;;;;;;;;4939926;29;20051;-79
2023/08/24 06:47:18;;;;;;;37.17;19.75;;;;;;;;;;4940372;29;20055;-79
2023/08/24 06:49:48;;;;;;;36.50;18.00;;;;;;;;;;4940227;29;20059;-80
2023/08/24 06:52:21;;;;;;;39.13;18.98;;;;;;;;;;4957575;29;20043;-79
2023/08/24 06:54:56;;;;;;;40.30;19.52;;;;;;;;;;4957616;29;20054;-77
2023/08/24 06:57:26;;;;;;;43.45;20.80;;;;;;;;;;4957409;29;20047;-77
2023/08/24 06:59:56;;;;;;;34.58;19.00;;;;;;;;;;4956932;28;20059;-78
2023/08/24 07:02:27;;;;;;;34.72;19.30;;;;;;;;;;4957185;29;20047;-78
2023/08/24 07:04:57;;;;;;;37.78;19.08;;;;;;;;;;4957628;29;20058;-78
2023/08/24 07:07:31;;;;;;;41.30;18.90;;;;;;;;;;4957219;29;20054;-77
2023/08/24 07:10:03;;;;;;;37.65;18.52;;;;;;;;;;4956122;28;20045;-78
2023/08/24 07:12:33;;;;;;;37.85;18.15;;;;;;;;;;4957480;29;20051;-79
2023/08/24 07:15:14;;;;;;;34.92;18.90;;;;;;;;;;4957070;29;20065;-78
2023/08/24 07:17:47;;;;;;;36.80;19.77;;;;;;;;;;4957291;29;20043;-79
2023/08/24 07:20:20;;;;;;;37.92;19.05;;;;;;;;;;4956919;29;20399;-80
2023/08/24 07:22:50;;;;;;;35.35;18.55;;;;;;;;;;4957222;29;20054;-78
2023/08/24 07:25:22;;;;;;;35.53;18.55;;;;;;;;;;4955681;29;20066;-79
2023/08/24 07:27:57;;;;;;;36.25;18.45;;;;;;;;;;4957248;29;20048;-80
2023/08/24 07:30:28;;;;;;;35.83;19.48;;;;;;;;;;4938163;29;20059;-80
2023/08/24 07:33:03;;;;;;;39.03;19.90;;;;;;;;;;4937711;29;20055;-78
2023/08/24 07:35:35;;;;;;;37.65;18.73;;;;;;;;;;4937806;29;20051;-79
2023/08/24 07:38:06;;;;;;;37.75;18.52;;;;;;;;;;4937189;29;20044;-78
2023/08/24 07:40:38;;;;;;;37.38;18.63;;;;;;;;;;4938046;29;20056;-77
2023/08/24 07:43:09;;;;;;;35.78;20.02;;;;;;;;;;4937550;29;20054;-77
2023/08/24 07:45:41;;;;;;;37.05;18.65;;;;;;;;;;4937331;29;20051;-77
2023/08/24 07:48:12;;;;;;;37.58;19.98;;;;;;;;;;4937192;29;20058;-76
2023/08/24 07:50:45;;;;;;;35.53;19.10;;;;;;;;;;4918647;29;20059;-79
2023/08/24 07:53:15;;;;;;;37.00;19.10;;;;;;;;;;4937743;29;20043;-79
2023/08/24 07:55:46;;;;;;;36.70;18.92;;;;;;;;;;4937687;29;20062;-78
2023/08/24 07:58:20;;;;;;;37.28;19.63;;;;;;;;;;4936731;29;20052;-78
2023/08/24 08:00:51;;;;;;;36.22;18.67;;;;;;;;;;4935830;29;20410;-77
2023/08/24 08:03:21;;;;;;;36.53;19.77;;;;;;;;;;4935993;29;20499;-78
2023/08/24 08:05:55;;;;;;;39.95;19.25;;;;;;;;;;4904932;29;20051;-78
2023/08/24 08:08:27;;;;;;;36.50;18.50;;;;;;;;;;4920592;29;20131;-78
2023/08/24 08:11:02;;;;;;;37.33;18.88;;;;;;;;;;4937512;29;20052;-80
2023/08/24 08:13:33;;;;;;;38.13;19.23;;;;;;;;;;4935552;29;20056;-79
2023/08/24 08:16:07;;;;;;;36.03;19.27;;;;;;;;;;4937212;29;20043;-79
2023/08/24 08:18:39;;;;;;;37.88;19.30;;;;;;;;;;4936049;29;20495;-79
2023/08/24 08:21:14;;;;;;;40.95;19.85;;;;;;;;;;4936819;29;20040;-79
2023/08/24 08:23:50;;;;;;;39.33;19.98;;;;;;;;;;4936921;29;20055;-78
2023/08/24 08:26:23;;;;;;;34.58;18.58;;;;;;;;;;4937209;29;20102;-78
2023/08/24 08:28:56;;;;;;;38.75;19.58;;;;;;;;;;4935841;29;20055;-78
2023/08/24 08:31:26;;;;;;;37.55;19.23;;;;;;;;;;4918596;29;20384;-77
2023/08/24 08:33:56;;;;;;;36.03;19.48;;;;;;;;;;4936599;29;20067;-77
2023/08/24 08:36:27;;;;;;;35.95;19.98;;;;;;;;;;4936616;29;20059;-78
2023/08/24 08:38:57;;;;;;;42.30;18.70;;;;;;;;;;4936435;29;20047;-78
2023/08/24 08:41:38;;;;;;;41.30;20.10;;;;;;;;;;4935514;29;20487;-76
2023/08/24 08:44:14;;;;;;;37.72;19.25;;;;;;;;;;4935525;29;20491;-78
2023/08/24 08:46:47;;;;;;;37.88;19.08;;;;;;;;;;4936157;29;20052;-79
2023/08/24 08:49:21;;;;;;;36.72;18.27;;;;;;;;;;4935077;29;20054;-78
2023/08/24 08:51:53;;;;;;;34.10;18.55;;;;;;;;;;4918766;29;20483;-78
2023/08/24 08:54:24;;;;;;;38.88;19.15;;;;;;;;;;4919618;29;20065;-78
2023/08/24 08:56:54;;;;;;;40.03;19.42;;;;;;;;;;4935931;29;20044;-78
2023/08/24 08:59:30;;;;;;;40.03;20.10;;;;;;;;;;4936096;29;20047;-79
2023/08/24 09:02:06;;;;;;;37.63;19.42;;;;;;;;;;4919768;29;20052;-78
2023/08/24 09:04:39;;;;;;;39.00;19.58;;;;;;;;;;4918939;29;20062;-78
2023/08/24 09:07:11;;;;;;;42.10;19.92;;;;;;;;;;4918926;29;20510;-79
2023/08/24 09:09:42;;;;;;;39.88;19.40;;;;;;;;;;4936320;29;20055;-78
2023/08/24 09:12:13;;;;;;;41.03;20.08;;;;;;;;;;4936485;29;20048;-78
2023/08/24 09:14:44;;;;;;;38.67;19.20;;;;;;;;;;4935643;29;20380;-78
2023/08/24 09:17:23;;;;;;;35.00;19.00;;;;;;;;;;4934841;29;20051;-78
2023/08/24 09:19:59;;;;;;;38.75;18.95;;;;;;;;;;4935662;29;20044;-78
2023/08/24 09:22:41;;;;;;;43.40;20.60;;;;;;;;;;4936292;29;20383;-79
2023/08/24 09:25:11;;;;;;;39.03;19.77;;;;;;;;;;4935836;29;20399;-79
2023/08/24 09:27:42;;;;;;;39.97;19.77;;;;;;;;;;4918216;29;20056;-79
2023/08/24 09:30:13;;;;;;;45.15;21.27;;;;;;;;;;4936015;29;20039;-79
2023/08/24 09:32:44;;;;;;;48.78;21.63;;;;;;;;;;4935257;29;20445;-78
2023/08/24 09:35:16;;;;;;;42.38;20.88;;;;;;;;;;4918882;29;20063;-79
2023/08/24 09:37:49;;;;;;;38.03;19.50;;;;;;;;;;4935505;29;20047;-79
2023/08/24 09:40:26;;;;;;;42.88;20.52;;;;;;;;;;4935671;29;20048;-79
2023/08/24 09:42:57;;;;;;;39.70;20.23;;;;;;;;;;4935556;29;20055;-79
2023/08/24 09:45:28;;;;;;;38.80;19.65;;;;;;;;;;4935755;29;20043;-79
2023/08/24 09:48:01;;;;;;;36.65;18.55;;;;;;;;;;4935823;29;20051;-80
2023/08/24 09:50:31;;;;;;;39.28;19.65;;;;;;;;;;4917952;29;20055;-79
2023/08/24 09:53:04;;;;;;;41.78;20.30;;;;;;;;;;4934976;29;20055;-79
2023/08/24 09:55:39;;;;;;;40.20;19.10;;;;;;;;;;4935607;29;20058;-79
2023/08/24 09:58:10;;;;;;;35.78;19.77;;;;;;;;;;4935317;29;20067;-79
2023/08/24 10:00:43;;;;;;;37.75;19.85;;;;;;;;;;4935737;29;20059;-78
2023/08/24 10:03:20;;;;;;;39.95;20.27;;;;;;;;;;4934301;29;20514;-79
2023/08/24 10:06:02;;;;;;;37.65;19.48;;;;;;;;;;4948102;29;20058;-79
2023/08/24 10:08:44;;;;;;;38.53;20.08;;;;;;;;;;4953788;29;20046;-78
2023/08/24 10:11:20;;;;;;;43.05;23.10;;;;;;;;;;4944328;29;20059;-78
2023/08/24 10:13:55;;;;;;;45.35;21.75;;;;;;;;;;4930012;29;20052;-79
2023/08/24 10:16:29;;;;;;;42.78;21.25;;;;;;;;;;4946013;29;20047;-79
2023/08/24 10:19:02;;;;;;;44.90;21.70;;;;;;;;;;4945947;29;20526;-79
2023/08/24 10:21:34;;;;;;;44.40;22.00;;;;;;;;;;4918437;29;20446;-79
2023/08/24 10:24:11;;;;;;;42.78;21.90;;;;;;;;;;4934945;29;20422;-78
2023/08/24 10:26:42;;;;;;;47.15;22.20;;;;;;;;;;4935438;29;20048;-78
2023/08/24 10:29:16;;;;;;;42.35;21.38;;;;;;;;;;4918318;29;20537;-79
2023/08/24 10:31:51;;;;;;;46.45;21.38;;;;;;;;;;4934978;29;20048;-79
2023/08/24 10:34:25;;;;;;;39.22;20.27;;;;;;;;;;4917934;29;20048;-78
2023/08/24 10:36:57;;;;;;;43.95;20.85;;;;;;;;;;4942986;29;20059;-78
2023/08/24 10:39:28;;;;;;;43.70;22.42;;;;;;;;;;4942708;29;20040;-77
2023/08/24 10:42:01;;;;;;;44.90;22.20;;;;;;;;;;4943744;29;20058;-77
2023/08/24 10:44:43;;;;;;;40.72;21.02;;;;;;;;;;4930351;29;20043;-77
2023/08/24 10:47:15;;;;;;;38.45;21.55;;;;;;;;;;4948579;29;20054;-78
2023/08/24 10:49:58;;;;;;;39.97;21.25;;;;;;;;;;4947998;29;20073;-78
2023/08/24 10:52:36;;;;;;;45.40;23.08;;;;;;;;;;4921888;29;20048;-79
2023/08/24 10:55:24;;;;;;;48.80;24.77;;;;;;;;;;4937911;29;20052;-78
2023/08/24 10:57:59;;;;;;;46.22;23.95;;;;;;;;;;4937276;29;20043;-79
2023/08/24 11:00:35;;;;;;;43.75;24.35;;;;;;;;;;4937432;29;20059;-79
2023/08/24 11:03:09;;;;;;;41.72;23.23;;;;;;;;;;4937643;29;20055;-78
2023/08/24 11:05:43;;;;;;;42.63;22.45;;;;;;;;;;4936978;29;20050;-78
2023/08/24 11:08:14;;;;;;;42.30;22.42;;;;;;;;;;4937016;29;20051;-78
2023/08/24 11:10:46;;;;;;;48.25;21.85;;;;;;;;;;4936844;29;20047;-78
2023/08/24 11:13:22;;;;;;;45.35;24.60;;;;;;;;;;4944435;29;20387;-80
2023/08/24 11:15:56;;;;;;;42.67;22.90;;;;;;;;;;4949184;29;20059;-79
2023/08/24 11:18:29;;;;;;;41.35;22.35;;;;;;;;;;4938888;29;20528;-78
2023/08/24 11:21:05;;;;;;;46.90;22.50;;;;;;;;;;4939438;29;20054;-80
2023/08/24 11:23:38;;;;;;;44.67;23.52;;;;;;;;;;4955899;29;20039;-80
2023/08/24 11:26:14;;;;;;;42.67;23.00;;;;;;;;;;4956279;29;20047;-79
2023/08/24 11:28:44;;;;;;;40.30;22.45;;;;;;;;;;4956182;29;20051;-79
2023/08/24 11:31:15;;;;;;;47.40;24.35;;;;;;;;;;4952519;29;20403;-78
2023/08/24 11:33:48;;;;;;;48.22;23.92;;;;;;;;;;4953850;29;20062;-78
2023/08/24 11:39:20;;;;;;;44.53;24.80;;;;;;;;;;4952114;29;20498;-81
2023/08/24 11:42:09;;;;;;;46.97;23.75;;;;;;;;;;4946962;29;20092;-80
2023/08/24 11:44:51;;;;;;;40.63;22.60;;;;;;;;;;4945212;29;20039;-82
2023/08/24 11:47:24;;;;;;;41.80;23.13;;;;;;;;;;4946954;29;20060;-82
2023/08/24 11:49:57;;;;;;;47.70;23.33;;;;;;;;;;4959824;29;20047;-81
2023/08/24 11:52:31;;;;;;;53.90;26.05;;;;;;;;;;4963746;29;20036;-80
2023/08/24 11:55:04;;;;;;;51.90;26.35;;;;;;;;;;4964285;28;20122;-81
2023/08/24 11:57:39;;;;;;;55.58;27.00;;;;;;;;;;4962582;29;20043;-81
2023/08/24 12:00:17;;;;;;;49.15;23.40;;;;;;;;;;4970851;29;20055;-80
2023/08/24 12:02:50;;;;;;;46.35;23.98;;;;;;;;;;4956950;28;20059;-81
2023/08/24 12:05:25;;;;;;;44.17;22.95;;;;;;;;;;4950833;28;20038;-81
2023/08/24 12:08:00;;;;;;;45.33;21.83;;;;;;;;;;4942625;29;20047;-84
2023/08/24 12:10:41;;;;;;;47.22;22.90;;;;;;;;;;4940789;29;20058;-81
2023/08/24 12:13:13;;;;;;;45.00;23.63;;;;;;;;;;4924045;29;20047;-82
2023/08/24 12:15:47;;;;;;;39.38;21.02;;;;;;;;;;4942143;29;20063;-81
2023/08/24 12:18:19;;;;;;;44.65;21.50;;;;;;;;;;4937953;29;20529;-82
2023/08/24 12:21:20;;;;;;;40.63;22.63;;;;;;;;;;4922063;29;20039;-81
2023/08/24 12:24:08;;;;;;;41.63;21.95;;;;;;;;;;4946354;29;20134;-82
2023/08/24 12:26:42;;;;;;;41.97;21.77;;;;;;;;;;4958052;29;20429;-83
2023/08/24 12:29:14;;;;;;;39.92;21.58;;;;;;;;;;4939048;29;20055;-82
2023/08/24 12:31:50;;;;;;;40.92;21.00;;;;;;;;;;4955458;29;20556;-83
2023/08/24 12:34:20;;;;;;;42.38;22.65;;;;;;;;;;4941332;29;20039;-82
2023/08/24 12:36:50;;;;;;;39.78;20.80;;;;;;;;;;4937341;29;20048;-82
2023/08/24 12:39:24;;;;;;;42.67;21.33;;;;;;;;;;4949867;29;20051;-81
2023/08/24 12:42:00;;;;;;;41.28;20.80;;;;;;;;;;4942104;29;20627;-82
2023/08/24 12:44:32;;;;;;;41.22;20.48;;;;;;;;;;4903232;29;20052;-83
2023/08/24 12:47:04;;;;;;;39.45;20.92;;;;;;;;;;4936864;29;20063;-83
2023/08/24 12:49:34;;;;;;;38.97;22.17;;;;;;;;;;4917637;29;20063;-82
2023/08/24 12:52:07;;;;;;;41.22;21.90;;;;;;;;;;4918434;29;20051;-83
2023/08/24 12:54:38;;;;;;;36.17;20.02;;;;;;;;;;4935868;29;20044;-83
2023/08/24 12:57:09;;;;;;;42.90;23.25;;;;;;;;;;4936897;29;20510;-84
2023/08/24 12:59:41;;;;;;;35.33;17.80;;;;;;;;;;4940589;29;20056;-84
2023/08/24 13:02:14;;;;;;;36.03;19.73;;;;;;;;;;4947110;29;20044;-81
2023/08/24 13:05:05;;;;;;;36.97;18.95;;;;;;;;;;4941576;29;20048;-82
2023/08/24 13:07:39;;;;;;;40.67;21.98;;;;;;;;;;4953126;28;20055;-81
2023/08/24 13:10:11;;;;;;;41.78;20.60;;;;;;;;;;4940142;29;20044;-81
2023/08/24 13:12:47;;;;;;;41.95;21.23;;;;;;;;;;4921396;29;20047;-81
2023/08/24 13:24:44;;;;;;;42.65;21.00;;;;;;;;;;4949949;29;20150;-83
2023/08/24 13:30:53;;;;;;;35.20;18.10;;;;;;;;;;4896385;29;20527;-81
2023/08/24 13:33:51;;;;;;;38.33;20.45;;;;;;;;;;4865977;29;20049;-81
2023/08/24 13:44:37;;;;;;;39.10;20.27;;;;;;;;;;4894535;29;20504;-83
2023/08/24 13:51:57;;;;;;;36.67;19.05;;;;;;;;;;4899410;29;20052;-83
2023/08/24 13:55:07;;;;;;;38.30;20.45;;;;;;;;;;4883398;29;20060;-84
2023/08/24 13:58:07;;;;;;;37.00;21.23;;;;;;;;;;4885935;29;20561;-83
2023/08/24 14:01:03;;;;;;;36.35;18.45;;;;;;;;;;4905956;29;20052;-82
2023/08/24 14:03:57;;;;;;;;;;;;;;;;;;4923870;29;20442;-81
2023/08/24 14:06:52;;;;;;;37.35;19.50;;;;;;;;;;4922068;29;20270;-83
2023/08/24 14:09:25;;;;;;;37.72;18.58;;;;;;;;;;4935925;29;20043;-83
2023/08/24 14:12:39;;;;;;;36.33;19.85;;;;;;;;;;4929478;29;20048;-81
2023/08/24 14:15:11;;;;;;;39.53;20.05;;;;;;;;;;4923827;29;20063;-83
2023/08/24 14:21:59;;;;;;;36.92;19.27;;;;;;;;;;4951257;28;20462;-83
2023/08/24 14:28:51;;;;;;;40.85;21.05;;;;;;;;;;4949185;29;20047;-84
2023/08/24 14:31:24;;;;;;;35.45;18.58;;;;;;;;;;4957742;29;20402;-82
2023/08/24 14:33:55;;;;;;;38.20;20.40;;;;;;;;;;4959371;29;20035;-81
2023/08/24 14:36:26;;;;;;;36.28;17.25;;;;;;;;;;4941567;29;20070;-83
2023/08/24 14:38:58;;;;;;;;;;;;;;;;;;4959023;29;20051;-81
2023/08/24 14:41:30;;;;;;;37.58;18.20;;;;;;;;;;4959560;29;19930;-81
2023/08/24 14:44:01;;;;;;;38.85;19.65;;;;;;;;;;4957412;29;20058;-82
2023/08/24 14:46:33;;;;;;;35.30;16.92;;;;;;;;;;4957928;29;20117;-81
2023/08/24 14:49:05;;;;;;;34.67;18.92;;;;;;;;;;4937540;29;20742;-84
2023/08/24 14:51:36;;;;;;;41.40;20.60;;;;;;;;;;4945824;29;20049;-84
2023/08/24 14:54:07;;;;;;;35.67;19.98;;;;;;;;;;4920031;29;20123;-85
2023/08/24 15:00:24;;;;;;;41.92;19.45;;;;;;;;;;4931238;29;20056;-84
2023/08/24 15:02:54;;;;;;;;;;;;;;;;;;4922210;29;20085;-83
2023/08/24 15:05:25;;;;;;;33.65;16.88;;;;;;;;;;4954581;29;19933;-84
2023/08/24 15:08:02;;;;;;;42.33;19.35;;;;;;;;;;4925221;29;20067;-85
2023/08/24 15:10:34;;;;;;;38.42;20.30;;;;;;;;;;4922081;29;20506;-85
2023/08/24 15:17:05;;;;;;;;;;;;;;;;;;4921738;29;20147;-84
2023/08/24 15:19:38;;;;;;;34.67;19.17;;;;;;;;;;4905959;29;20393;-85
2023/08/24 15:22:12;;;;;;;35.33;18.42;;;;;;;;;;4920682;29;20059;-84
2023/08/24 15:29:17;;;;;;;38.97;20.65;;;;;;;;;;4947492;29;20043;-85
2023/08/24 15:31:48;;;;;;;37.15;20.38;;;;;;;;;;4950626;28;20482;-84
2023/08/24 15:34:19;;;;;;;35.00;17.15;;;;;;;;;;4915129;29;20051;-84
2023/08/24 15:36:52;;;;;;;34.70;20.17;;;;;;;;;;4922947;29;20051;-85
2023/08/24 15:39:24;;;;;;;32.58;17.90;;;;;;;;;;4938904;29;20459;-85
2023/08/24 15:41:59;;;;;;;29.92;17.17;;;;;;;;;;4939999;29;20403;-85
2023/08/24 15:44:33;;;;;;;36.05;18.15;;;;;;;;;;4941304;29;20047;-85
2023/08/24 15:47:03;;;;;;;33.65;19.20;;;;;;;;;;4925665;29;20055;-84
2023/08/24 15:49:36;;;;;;;34.92;18.70;;;;;;;;;;4925799;29;20051;-84
2023/08/24 15:52:18;;;;;;;35.13;19.63;;;;;;;;;;4926275;29;20051;-84